Time;durP1;ratioP1;P1;durP2;ratioP2;P2;SDS_P1;SDS_P2;PMS_P1;PMS_P2;Temp;Humidity;BMP_temperature;BMP_pressure;BME280_temperature;BME280_humidity;BME280_pressure;Samples;Min_cycle;Max_cycle;Signal;HPM_P1;HPM_P2
2021/03/07 00:02:56;;;;;;;12.43;8.05;;;-0.10;99.90;;;;;;6126526;28;20509;-79
2021/03/07 00:05:56;;;;;;;12.25;8.30;;;0.00;98.00;;;;;;6151439;28;20042;-80
2021/03/07 00:08:57;;;;;;;11.13;7.65;;;0.60;99.90;;;;;;6155328;28;20038;-79
2021/03/07 00:11:58;;;;;;;12.73;8.23;;;;;;;;;;6137242;28;20026;-84
2021/03/07 00:14:59;;;;;;;11.10;8.10;;;;;;;;;;6158450;28;20524;-80
2021/03/07 00:18:00;;;;;;;11.70;8.30;;;;;;;;;;6175757;28;20058;-84
2021/03/07 00:21:01;;;;;;;10.02;7.50;;;;;;;;;;6151892;28;20046;-80
2021/03/07 00:24:03;;;;;;;11.10;7.97;;;0.10;99.50;;;;;;6167925;28;20035;-79
2021/03/07 00:27:03;;;;;;;12.15;8.75;;;-0.20;99.90;;;;;;6133221;28;20034;-82
2021/03/07 00:30:09;;;;;;;11.55;8.68;;;0.20;99.80;;;;;;6141581;28;20144;-80
2021/03/07 00:33:10;;;;;;;12.68;8.68;;;;;;;;;;6127668;28;20077;-82
2021/03/07 00:36:11;;;;;;;12.80;8.43;;;-0.10;99.90;;;;;;6159743;28;20018;-79
2021/03/07 00:39:11;;;;;;;12.15;8.00;;;-0.20;99.90;;;;;;6125142;28;20054;-82
2021/03/07 00:42:12;;;;;;;12.85;9.15;;;;;;;;;;6153827;28;20039;-79
2021/03/07 00:45:14;;;;;;;18.17;8.80;;;0.00;99.90;;;;;;6138404;28;20023;-79
2021/03/07 00:48:15;;;;;;;12.55;9.18;;;;;;;;;;6137787;28;20046;-79
2021/03/07 00:51:16;;;;;;;11.75;8.10;;;-0.10;97.40;;;;;;6145233;28;20113;-80
2021/03/07 00:54:17;;;;;;;13.07;8.60;;;;;;;;;;6149935;28;20038;-84
2021/03/07 00:57:18;;;;;;;13.30;9.00;;;;;;;;;;6142408;28;20088;-80
2021/03/07 01:00:23;;;;;;;11.48;8.73;;;0.10;99.50;;;;;;6165598;28;20445;-80
2021/03/07 01:03:24;;;;;;;15.05;9.57;;;;;;;;;;6173486;28;20477;-79
2021/03/07 01:06:25;;;;;;;13.55;9.32;;;0.00;99.90;;;;;;6155247;28;20035;-85
2021/03/07 01:09:26;;;;;;;16.55;10.05;;;;;;;;;;6138662;28;20041;-80
2021/03/07 01:12:27;;;;;;;14.43;8.75;;;;;;;;;;6148344;28;20030;-81
2021/03/07 01:15:29;;;;;;;12.02;8.27;;;0.00;94.90;;;;;;6165156;28;20041;-80
2021/03/07 01:18:29;;;;;;;14.05;9.25;;;0.10;99.90;;;;;;6121042;28;20057;-83
2021/03/07 01:21:30;;;;;;;11.65;8.40;;;0.10;99.90;;;;;;6168152;28;20055;-85
2021/03/07 01:24:30;;;;;;;14.45;8.50;;;0.10;99.90;;;;;;6138405;28;20037;-80
2021/03/07 01:27:31;;;;;;;13.35;9.80;;;;;;;;;;6131140;28;20417;-80
2021/03/07 01:30:33;;;;;;;12.48;9.00;;;-0.10;95.00;;;;;;6179697;28;20072;-81
2021/03/07 01:33:34;;;;;;;15.25;9.60;;;0.10;99.90;;;;;;6122590;28;20038;-79
2021/03/07 01:36:35;;;;;;;15.25;9.23;;;0.30;99.90;;;;;;6123638;28;20101;-80
2021/03/07 01:39:36;;;;;;;12.80;9.32;;;;;;;;;;6128037;28;20038;-79
2021/03/07 01:42:37;;;;;;;12.20;9.02;;;0.60;99.90;;;;;;6153449;28;20023;-81
2021/03/07 01:45:38;;;;;;;14.70;9.27;;;;;;;;;;6163879;28;20074;-82
2021/03/07 01:48:39;;;;;;;13.45;9.45;;;;;;;;;;6175841;28;20038;-80
2021/03/07 01:51:40;;;;;;;15.07;10.05;;;0.40;99.90;;;;;;6152042;28;20462;-79
2021/03/07 01:54:41;;;;;;;13.25;9.85;;;;;;;;;;6153423;28;20058;-81
2021/03/07 01:57:41;;;;;;;13.80;9.35;;;0.30;99.90;;;;;;6144191;28;20035;-84
2021/03/07 02:00:42;;;;;;;11.10;8.73;;;;;;;;;;6136964;28;20039;-82
2021/03/07 02:03:52;;;;;;;13.65;9.32;;;1.00;99.90;;;;;;6155322;28;20054;-80
2021/03/07 02:06:53;;;;;;;13.75;9.00;;;;;;;;;;6144138;28;20436;-84
2021/03/07 02:09:54;;;;;;;13.57;9.65;;;0.80;99.90;;;;;;6151756;28;20026;-81
2021/03/07 02:12:56;;;;;;;13.38;10.07;;;0.70;99.90;;;;;;6151290;28;20089;-80
2021/03/07 02:16:02;;;;;;;15.95;9.98;;;0.60;99.90;;;;;;6134223;28;20033;-80
2021/03/07 02:19:04;;;;;;;13.50;9.52;;;0.70;99.90;;;;;;6125627;28;20086;-80
2021/03/07 02:22:06;;;;;;;11.90;9.35;;;0.80;95.00;;;;;;6124643;28;20062;-80
2021/03/07 02:25:08;;;;;;;14.15;9.88;;;1.10;99.90;;;;;;6141293;28;20029;-80
2021/03/07 02:28:09;;;;;;;14.15;10.88;;;;;;;;;;6127796;28;20034;-80
2021/03/07 02:31:10;;;;;;;12.65;9.35;;;0.90;99.90;;;;;;6142468;28;20488;-80
2021/03/07 02:34:24;;;;;;;14.55;10.25;;;0.70;93.70;;;;;;6127726;28;20027;-80
2021/03/07 02:37:25;;;;;;;13.38;8.82;;;;;;;;;;6158824;28;20047;-83
2021/03/07 02:40:28;;;;;;;14.02;9.45;;;0.80;99.90;;;;;;6155913;28;20527;-79
2021/03/07 02:43:31;;;;;;;14.93;10.00;;;0.90;96.00;;;;;;6140283;28;20122;-83
2021/03/07 02:46:32;;;;;;;15.93;10.55;;;1.00;99.90;;;;;;6162538;28;20758;-81
2021/03/07 02:49:34;;;;;;;14.20;10.20;;;0.90;95.20;;;;;;6149631;28;20034;-83
2021/03/07 02:52:36;;;;;;;15.98;9.45;;;1.10;94.40;;;;;;6158950;28;20099;-80
2021/03/07 02:55:37;;;;;;;15.35;9.80;;;0.90;99.90;;;;;;6147289;28;20473;-83
2021/03/07 02:58:37;;;;;;;13.70;9.70;;;1.10;99.90;;;;;;6139496;28;20049;-80
2021/03/07 03:01:38;;;;;;;13.65;9.98;;;1.10;99.90;;;;;;6140491;28;20031;-81
2021/03/07 03:04:39;;;;;;;13.52;9.63;;;;;;;;;;6136574;28;20030;-80
2021/03/07 03:07:41;;;;;;;15.60;9.88;;;;;;;;;;6139672;28;20058;-79
2021/03/07 03:10:41;;;;;;;12.40;9.45;;;1.50;99.90;;;;;;6155740;28;20023;-80
2021/03/07 03:13:42;;;;;;;14.73;10.25;;;1.20;99.90;;;;;;6128574;28;20041;-79
2021/03/07 03:16:46;;;;;;;17.48;10.93;;;1.50;99.90;;;;;;6146158;28;20034;-80
2021/03/07 03:19:47;;;;;;;15.10;10.20;;;;;;;;;;6137010;28;20121;-82
2021/03/07 03:22:49;;;;;;;13.98;10.38;;;;;;;;;;6171086;28;20030;-82
2021/03/07 03:25:50;;;;;;;14.68;10.05;;;;;;;;;;6141017;28;20035;-82
2021/03/07 03:28:51;;;;;;;14.57;10.48;;;;;;;;;;6155561;28;20477;-80
2021/03/07 03:31:52;;;;;;;14.48;9.55;;;;;;;;;;6153432;28;20026;-80
2021/03/07 03:34:53;;;;;;;16.58;10.65;;;1.50;99.90;;;;;;6172942;28;20034;-84
2021/03/07 03:37:54;;;;;;;16.38;10.23;;;;;;;;;;6155279;28;20096;-83
2021/03/07 03:40:56;;;;;;;14.52;10.02;;;1.50;99.90;;;;;;6158454;28;20034;-80
2021/03/07 03:43:57;;;;;;;13.50;9.95;;;1.40;99.90;;;;;;6157146;28;20030;-84
2021/03/07 03:46:58;;;;;;;14.32;10.48;;;;;;;;;;6139029;28;20088;-80
2021/03/07 03:49:59;;;;;;;15.48;10.60;;;1.30;99.90;;;;;;6138755;28;20027;-80
2021/03/07 03:53:01;;;;;;;13.70;9.48;;;1.30;94.90;;;;;;6130782;28;20038;-79
2021/03/07 03:56:02;;;;;;;14.00;9.98;;;;;;;;;;6135609;28;20042;-85
2021/03/07 03:59:03;;;;;;;13.40;9.52;;;1.20;99.90;;;;;;6154309;28;20053;-82
2021/03/07 04:02:03;;;;;;;17.05;10.68;;;1.30;99.90;;;;;;6122385;28;20404;-80
2021/03/07 04:05:06;;;;;;;15.07;10.40;;;1.40;99.90;;;;;;6126109;28;20537;-81
2021/03/07 04:08:08;;;;;;;;;;;1.60;94.40;;;;;;6142939;28;20035;-82
2021/03/07 04:11:08;;;;;;;13.43;10.13;;;1.70;99.90;;;;;;6160999;28;19905;-83
2021/03/07 04:14:09;;;;;;;15.02;9.93;;;1.60;99.90;;;;;;6136543;28;20038;-82
2021/03/07 04:17:09;;;;;;;14.15;10.45;;;2.00;94.80;;;;;;6122971;28;20046;-83
2021/03/07 04:20:11;;;;;;;16.13;10.73;;;1.80;95.40;;;;;;6144151;28;20054;-81
2021/03/07 04:23:11;;;;;;;13.70;10.10;;;1.80;99.90;;;;;;6160040;28;20038;-80
2021/03/07 04:26:12;;;;;;;14.80;9.95;;;2.10;99.90;;;;;;6159184;28;20057;-80
2021/03/07 04:29:13;;;;;;;13.75;10.18;;;2.30;95.30;;;;;;6155702;28;20026;-81
2021/03/07 04:32:13;;;;;;;14.30;10.40;;;1.90;95.30;;;;;;6141929;28;20037;-86
2021/03/07 04:35:14;;;;;;;14.90;10.13;;;1.90;95.10;;;;;;6151383;28;20037;-80
2021/03/07 04:38:14;;;;;;;13.98;10.75;;;1.90;99.90;;;;;;6145013;28;20068;-84
2021/03/07 04:41:15;;;;;;;15.35;11.32;;;3.10;95.80;;;;;;6161099;28;20033;-86
2021/03/07 04:44:16;;;;;;;13.38;10.10;;;1.90;95.50;;;;;;6161351;28;20030;-80
2021/03/07 04:47:16;;;;;;;15.85;11.10;;;1.90;96.10;;;;;;6155959;28;20073;-83
2021/03/07 04:50:17;;;;;;;15.88;10.40;;;1.90;96.30;;;;;;6159788;28;20468;-81
2021/03/07 04:53:18;;;;;;;14.45;10.05;;;1.80;96.70;;;;;;6145403;28;20026;-83
2021/03/07 04:56:18;;;;;;;14.77;10.45;;;1.70;96.90;;;;;;6138275;28;20045;-81
2021/03/07 04:59:19;;;;;;;14.30;10.70;;;1.90;97.10;;;;;;6145370;28;20053;-80
2021/03/07 05:02:19;;;;;;;15.57;10.68;;;1.60;96.60;;;;;;6171350;28;20034;-80
2021/03/07 05:05:20;;;;;;;15.30;10.32;;;1.80;97.10;;;;;;6161588;28;20437;-80
2021/03/07 05:08:21;;;;;;;15.27;10.73;;;1.60;99.90;;;;;;6146899;28;20030;-80
2021/03/07 05:11:22;;;;;;;16.65;11.30;;;;;;;;;;6133844;28;20034;-79
2021/03/07 05:14:22;;;;;;;14.68;10.32;;;1.50;95.90;;;;;;6160278;28;20026;-80
2021/03/07 05:17:24;;;;;;;15.02;10.90;;;2.60;97.70;;;;;;6127367;28;20121;-84
2021/03/07 05:20:25;;;;;;;16.50;11.43;;;1.40;97.50;;;;;;6124153;28;20054;-85
2021/03/07 05:23:27;;;;;;;17.70;12.73;;;1.40;97.40;;;;;;6134404;28;20063;-81
2021/03/07 05:26:29;;;;;;;18.27;12.03;;;1.40;96.20;;;;;;6140682;28;20054;-80
2021/03/07 05:29:30;;;;;;;18.02;11.38;;;;;;;;;;6133195;28;20038;-86
2021/03/07 05:32:30;;;;;;;14.10;10.25;;;1.50;95.80;;;;;;6144521;28;20026;-80
2021/03/07 05:35:31;;;;;;;18.20;11.80;;;1.50;97.10;;;;;;6159600;28;20027;-81
2021/03/07 05:38:32;;;;;;;14.38;11.00;;;2.70;97.30;;;;;;6156302;28;20117;-80
2021/03/07 05:41:32;;;;;;;15.98;11.55;;;2.00;97.30;;;;;;6160464;28;20120;-84
2021/03/07 05:44:33;;;;;;;16.75;11.02;;;1.90;97.00;;;;;;6126263;28;20492;-81
2021/03/07 05:47:33;;;;;;;15.15;11.35;;;3.10;98.30;;;;;;6144873;28;20038;-80
2021/03/07 05:50:34;;;;;;;17.08;11.38;;;3.10;98.50;;;;;;6146760;28;20030;-80
2021/03/07 05:53:35;;;;;;;19.08;12.65;;;2.10;98.10;;;;;;6196597;28;20034;-80
2021/03/07 05:56:35;;;;;;;16.83;12.55;;;1.60;99.90;;;;;;6150699;28;20034;-80
2021/03/07 05:59:36;;;;;;;14.30;10.93;;;1.70;99.90;;;;;;6154280;28;20102;-79
2021/03/07 06:02:36;;;;;;;17.33;11.32;;;1.70;99.90;;;;;;6156367;28;20232;-80
2021/03/07 06:05:37;;;;;;;19.00;11.75;;;1.50;99.90;;;;;;6158082;28;20022;-79
2021/03/07 06:08:41;;;;;;;16.73;11.52;;;1.80;99.90;;;;;;6152709;28;20041;-84
2021/03/07 06:11:41;;;;;;;16.38;12.00;;;1.60;99.90;;;;;;6141441;28;20122;-80
2021/03/07 06:14:43;;;;;;;16.13;11.40;;;1.60;99.90;;;;;;6141923;28;20050;-80
2021/03/07 06:17:44;;;;;;;17.58;11.45;;;2.30;99.90;;;;;;6137307;28;20057;-81
2021/03/07 06:20:46;;;;;;;15.65;11.10;;;1.80;99.90;;;;;;6145052;28;20146;-80
2021/03/07 06:23:48;;;;;;;17.17;12.40;;;;;;;;;;6146453;28;20042;-82
2021/03/07 06:27:04;;;;;;;16.63;11.27;;;1.70;99.90;;;;;;6147957;28;20130;-78
2021/03/07 06:30:08;;;;;;;14.75;11.63;;;1.80;99.90;;;;;;6133724;28;20031;-80
2021/03/07 06:33:08;;;;;;;16.13;10.57;;;1.50;99.90;;;;;;6170978;28;20442;-80
2021/03/07 06:36:22;;;;;;;16.55;11.05;;;1.70;99.90;;;;;;6150062;28;20023;-85
2021/03/07 06:39:22;;;;;;;16.42;12.00;;;1.70;99.90;;;;;;6145056;28;20043;-84
2021/03/07 06:42:23;;;;;;;18.33;11.60;;;1.60;99.90;;;;;;6126497;28;20489;-79
2021/03/07 06:45:24;;;;;;;17.60;14.38;;;1.70;99.90;;;;;;6148420;28;20070;-82
2021/03/07 06:48:34;;;;;;;55.03;37.53;;;2.30;98.30;;;;;;6142152;28;20030;-81
2021/03/07 06:51:35;;;;;;;17.92;12.40;;;1.80;99.90;;;;;;6139192;28;21045;-79
2021/03/07 06:54:36;;;;;;;18.75;12.50;;;1.80;99.90;;;;;;6131768;28;20031;-80
2021/03/07 06:57:36;;;;;;;16.00;12.35;;;2.70;97.40;;;;;;6120197;28;20478;-81
2021/03/07 07:00:40;;;;;;;15.35;10.80;;;2.40;99.90;;;;;;6146664;28;20074;-85
2021/03/07 07:03:55;;;;;;;18.90;11.45;;;2.70;97.30;;;;;;6143915;28;20063;-81
2021/03/07 07:07:19;;;;;;;14.57;11.10;;;3.60;99.90;;;;;;6148529;28;20113;-82
2021/03/07 07:10:20;;;;;;;15.88;11.05;;;4.00;99.90;;;;;;6135273;28;20037;-85
2021/03/07 07:13:21;;;;;;;23.15;14.38;;;;;;;;;;6151251;28;20350;-82
2021/03/07 07:16:22;;;;;;;17.35;10.90;;;;;;;;;;6138924;28;20027;-84
2021/03/07 07:19:23;;;;;;;16.77;11.85;;;5.80;99.90;;;;;;6139515;28;20623;-80
2021/03/07 07:22:24;;;;;;;14.30;10.95;;;6.30;97.00;;;;;;6154432;28;20078;-83
2021/03/07 07:25:24;;;;;;;14.98;11.55;;;6.90;93.10;;;;;;6120848;28;20146;-84
2021/03/07 07:28:25;;;;;;;17.45;13.32;;;7.70;96.70;;;;;;6147278;28;20481;-85
2021/03/07 07:31:29;;;;;;;17.15;11.90;;;8.10;96.60;;;;;;6142989;28;20121;-84
2021/03/07 07:34:47;;;;;;;18.23;13.73;;;8.40;94.60;;;;;;6172058;28;20448;-82
2021/03/07 07:37:50;;;;;;;18.90;13.48;;;8.50;82.10;;;;;;6125793;28;20086;-85
2021/03/07 07:40:50;;;;;;;19.02;12.57;;;8.90;82.30;;;;;;6163546;28;20110;-81
2021/03/07 07:43:51;;;;;;;16.52;13.32;;;8.80;81.20;;;;;;6153562;28;20034;-80
2021/03/07 07:46:55;;;;;;;14.95;12.40;;;9.10;79.70;;;;;;6155062;28;20034;-79
2021/03/07 07:49:56;;;;;;;14.25;11.18;;;9.30;80.80;;;;;;6123103;28;20540;-80
2021/03/07 07:53:03;;;;;;;16.92;12.60;;;9.40;80.10;;;;;;6149533;28;20030;-80
2021/03/07 07:56:04;;;;;;;17.80;11.93;;;9.90;76.80;;;;;;6160762;28;20064;-82
2021/03/07 07:59:05;;;;;;;13.20;11.00;;;9.90;79.10;;;;;;6131943;28;20043;-82
2021/03/07 08:02:06;;;;;;;14.90;11.43;;;10.10;77.40;;;;;;6151055;28;20094;-83
2021/03/07 08:05:28;;;;;;;14.98;12.05;;;10.00;77.00;;;;;;6137443;28;20034;-84
2021/03/07 08:08:39;;;;;;;14.77;11.10;;;10.20;76.20;;;;;;6159753;28;20043;-83
2021/03/07 08:11:40;;;;;;;15.30;11.30;;;10.80;76.50;;;;;;6132327;28;20460;-82
2021/03/07 08:14:40;;;;;;;11.82;9.82;;;11.00;90.90;;;;;;6130519;28;20035;-82
2021/03/07 08:17:57;;;;;;;11.68;10.10;;;11.20;84.00;;;;;;6143531;28;20027;-82
2021/03/07 08:20:58;;;;;;;13.75;10.60;;;11.30;74.50;;;;;;6160539;28;20080;-83
2021/03/07 08:24:06;;;;;;;12.88;10.75;;;11.40;82.50;;;;;;6137975;28;20617;-83
2021/03/07 08:27:07;;;;;;;12.93;11.38;;;;;;;;;;6127285;28;20039;-82
2021/03/07 08:30:14;;;;;;;12.82;11.10;;;11.30;85.00;;;;;;6155981;28;20038;-83
2021/03/07 08:33:25;;;;;;;12.50;11.02;;;12.10;67.80;;;;;;6156036;28;20040;-80
2021/03/07 08:36:26;;;;;;;16.02;10.85;;;12.00;66.90;;;;;;6133280;28;20031;-82
2021/03/07 08:39:27;;;;;;;12.95;10.30;;;;;;;;;;6116194;28;20038;-81
2021/03/07 08:42:28;;;;;;;13.65;10.73;;;12.50;83.90;;;;;;6140703;28;20031;-81
2021/03/07 08:45:30;;;;;;;13.38;10.85;;;12.40;66.20;;;;;;6135351;28;20110;-86
2021/03/07 08:48:31;;;;;;;13.68;10.20;;;13.20;65.50;;;;;;6142388;28;20031;-84
2021/03/07 08:51:34;;;;;;;12.27;10.73;;;12.90;62.00;;;;;;6124570;28;20039;-84
2021/03/07 08:54:34;;;;;;;12.23;10.50;;;13.10;61.80;;;;;;6127429;28;20110;-84
2021/03/07 08:57:35;;;;;;;12.25;10.65;;;13.60;77.90;;;;;;6127247;28;20051;-80
2021/03/07 09:00:36;;;;;;;14.43;10.90;;;13.60;60.30;;;;;;6118007;28;20113;-82
2021/03/07 09:03:36;;;;;;;15.27;11.27;;;14.10;59.90;;;;;;6124376;28;20452;-84
2021/03/07 09:06:44;;;;;;;12.63;9.93;;;14.30;59.00;;;;;;6139868;28;20482;-83
2021/03/07 09:09:45;;;;;;;13.90;11.35;;;14.60;56.00;;;;;;6118247;28;20031;-85
2021/03/07 09:12:46;;;;;;;14.70;10.88;;;14.90;57.00;;;;;;6125979;28;20034;-84
2021/03/07 09:15:59;;;;;;;13.98;11.30;;;14.80;56.70;;;;;;6146728;28;20071;-81
2021/03/07 09:19:00;;;;;;;12.57;11.23;;;15.20;52.70;;;;;;6144347;28;20046;-84
2021/03/07 09:22:18;;;;;;;12.60;11.25;;;14.90;54.10;;;;;;6157469;28;20145;-86
2021/03/07 09:25:21;;;;;;;15.32;11.18;;;15.60;53.40;;;;;;6160286;28;20037;-84
2021/03/07 09:28:35;;;;;;;14.43;10.70;;;16.60;54.20;;;;;;6162698;28;20462;-83
2021/03/07 09:31:36;;;;;;;18.38;11.50;;;16.00;54.70;;;;;;6170331;28;20070;-85
2021/03/07 09:34:37;;;;;;;14.43;10.73;;;16.10;53.10;;;;;;6128245;28;20046;-83
2021/03/07 09:37:37;;;;;;;14.63;11.43;;;17.00;52.10;;;;;;6129294;28;20027;-83
2021/03/07 09:40:39;;;;;;;12.30;10.75;;;17.10;52.40;;;;;;6136519;28;20058;-83
2021/03/07 09:43:44;;;;;;;12.65;11.35;;;17.00;51.30;;;;;;6139248;28;20062;-84
2021/03/07 09:46:46;;;;;;;13.63;11.05;;;17.70;47.10;;;;;;6144864;28;20031;-85
2021/03/07 09:49:47;;;;;;;16.45;11.73;;;16.90;52.80;;;;;;6133136;28;20058;-85
2021/03/07 09:52:47;;;;;;;13.57;11.30;;;16.90;51.80;;;;;;6149428;28;20114;-82
2021/03/07 09:55:48;;;;;;;14.75;11.70;;;17.40;53.00;;;;;;6133999;28;20035;-82
2021/03/07 09:58:48;;;;;;;14.02;12.50;;;16.90;51.30;;;;;;6133355;28;20157;-82
2021/03/07 10:01:50;;;;;;;13.43;11.98;;;16.50;51.50;;;;;;6133132;28;20481;-83
2021/03/07 10:04:51;;;;;;;16.55;11.88;;;17.00;50.60;;;;;;6150956;28;20035;-85
2021/03/07 10:07:52;;;;;;;16.37;12.17;;;17.60;50.90;;;;;;6146716;28;20509;-85
2021/03/07 10:11:12;;;;;;;14.38;12.05;;;16.50;81.60;;;;;;6134356;28;20282;-84
2021/03/07 10:14:12;;;;;;;14.75;12.68;;;16.70;69.20;;;;;;6115386;28;20561;-84
2021/03/07 10:17:13;;;;;;;16.83;13.50;;;16.80;65.10;;;;;;6142150;28;20129;-84
2021/03/07 10:20:15;;;;;;;14.82;12.38;;;16.80;52.00;;;;;;6141238;28;20063;-82
2021/03/07 10:23:16;;;;;;;17.20;13.20;;;16.80;53.00;;;;;;6145808;28;20986;-83
2021/03/07 10:26:17;;;;;;;16.35;13.20;;;17.00;53.80;;;;;;6153667;28;20039;-82
2021/03/07 10:29:22;;;;;;;16.52;13.30;;;16.90;64.60;;;;;;6150964;28;20042;-84
2021/03/07 10:32:22;;;;;;;19.63;15.40;;;16.70;52.40;;;;;;6176889;28;20338;-82
2021/03/07 10:35:23;;;;;;;20.17;13.95;;;15.80;55.80;;;;;;6154817;28;20038;-80
2021/03/07 10:38:24;;;;;;;19.00;13.82;;;15.80;60.90;;;;;;6156685;28;20081;-81
2021/03/07 10:41:30;;;;;;;19.48;13.60;;;16.30;61.00;;;;;;6175852;28;20477;-80
2021/03/07 10:44:30;;;;;;;21.80;16.05;;;17.00;57.50;;;;;;6178700;28;20763;-80
2021/03/07 10:47:31;;;;;;;22.55;14.20;;;18.10;53.00;;;;;;6125946;28;20034;-81
2021/03/07 10:50:32;;;;;;;19.70;14.68;;;17.80;54.10;;;;;;6140061;28;20421;-81
2021/03/07 10:53:33;;;;;;;20.33;15.05;;;18.30;56.60;;;;;;6150930;28;20481;-79
2021/03/07 10:56:34;;;;;;;25.83;15.48;;;18.30;57.00;;;;;;6124458;28;20042;-80
2021/03/07 10:59:35;;;;;;;20.65;16.38;;;18.10;56.30;;;;;;6176736;28;20508;-79
2021/03/07 11:02:36;;;;;;;26.88;15.98;;;18.10;50.80;;;;;;6174265;28;20026;-79
2021/03/07 11:05:37;;;;;;;18.23;14.73;;;18.30;52.20;;;;;;6139000;28;20395;-79
2021/03/07 11:08:37;;;;;;;20.27;15.27;;;17.50;51.60;;;;;;6172356;28;20398;-79
2021/03/07 11:11:39;;;;;;;28.27;16.10;;;17.20;53.60;;;;;;6138898;28;20035;-79
2021/03/07 11:14:40;;;;;;;28.73;17.02;;;17.10;52.70;;;;;;6142177;28;20026;-79
2021/03/07 11:17:41;;;;;;;25.35;16.67;;;16.90;52.60;;;;;;6161946;28;20038;-79
2021/03/07 11:20:41;;;;;;;24.92;17.27;;;16.70;52.70;;;;;;6161358;28;20060;-79
2021/03/07 11:23:42;;;;;;;25.92;17.92;;;16.30;51.70;;;;;;6138084;28;20037;-80
2021/03/07 11:26:42;;;;;;;24.92;17.20;;;16.20;52.30;;;;;;6195146;28;20084;-80
2021/03/07 11:29:43;;;;;;;27.30;17.52;;;15.80;54.30;;;;;;6160917;28;20053;-78
2021/03/07 11:32:44;;;;;;;27.30;16.90;;;15.50;56.00;;;;;;6176986;28;20038;-77
2021/03/07 11:35:44;;;;;;;25.02;17.17;;;15.40;57.00;;;;;;6171414;28;20040;-79
2021/03/07 11:38:45;;;;;;;23.83;16.00;;;14.80;57.30;;;;;;6153308;28;20046;-80
2021/03/07 11:41:46;;;;;;;25.10;17.33;;;14.50;62.40;;;;;;6171817;28;20050;-79
2021/03/07 11:44:47;;;;;;;28.20;19.63;;;14.60;59.90;;;;;;6160464;28;20051;-80
2021/03/07 11:47:47;;;;;;;27.88;18.05;;;14.40;58.60;;;;;;6133229;28;20033;-82
2021/03/07 11:50:48;;;;;;;24.60;17.90;;;14.40;59.80;;;;;;6143406;28;20054;-82
2021/03/07 11:53:49;;;;;;;27.85;20.08;;;13.70;59.80;;;;;;6125830;28;20035;-80
2021/03/07 11:56:49;;;;;;;29.38;18.67;;;13.60;61.50;;;;;;6149638;28;20037;-80
2021/03/07 11:59:50;;;;;;;27.15;18.85;;;;;;;;;;6158477;28;20034;-82
2021/03/07 12:02:51;;;;;;;28.42;18.98;;;13.40;81.10;;;;;;6152422;28;20054;-80
2021/03/07 12:05:52;;;;;;;26.05;18.45;;;;;;;;;;6151131;28;20027;-80
2021/03/07 12:08:53;;;;;;;29.13;19.52;;;12.70;80.40;;;;;;6170584;28;20033;-83
2021/03/07 12:11:53;;;;;;;31.98;21.30;;;13.30;92.90;;;;;;6153475;28;20034;-89
2021/03/07 12:14:54;;;;;;;30.77;21.00;;;13.60;92.70;;;;;;6149502;28;20105;-84
2021/03/07 12:17:55;;;;;;;30.00;20.98;;;13.50;81.10;;;;;;6146177;28;20053;-82
2021/03/07 12:20:55;;;;;;;33.63;20.25;;;13.50;83.90;;;;;;6145253;28;20556;-81
2021/03/07 12:23:56;;;;;;;31.17;21.63;;;13.00;90.30;;;;;;6160619;28;20030;-81
2021/03/07 12:27:07;;;;;;;28.35;20.33;;;;;;;;;;6140423;28;20468;-82
2021/03/07 12:30:08;;;;;;;29.80;20.73;;;12.70;94.60;;;;;;6166205;28;20488;-86
2021/03/07 12:33:09;;;;;;;31.27;20.85;;;;;;;;;;6161039;28;20038;-83
2021/03/07 12:36:10;;;;;;;29.05;20.90;;;12.30;95.10;;;;;;6146606;28;20027;-84
2021/03/07 12:39:11;;;;;;;29.38;20.48;;;;;;;;;;6149329;28;20081;-85
2021/03/07 12:42:13;;;;;;;29.83;20.80;;;11.80;94.10;;;;;;6143820;28;20038;-87
2021/03/07 12:45:14;;;;;;;29.07;20.17;;;12.20;95.00;;;;;;6132488;28;20027;-87
2021/03/07 12:48:15;;;;;;;30.63;20.33;;;;;;;;;;6133168;28;20030;-88
2021/03/07 12:51:15;;;;;;;30.70;21.45;;;12.00;89.20;;;;;;6147682;28;20093;-87
2021/03/07 12:54:16;;;;;;;31.67;20.85;;;11.70;85.10;;;;;;6133547;28;20034;-82
2021/03/07 12:57:16;;;;;;;33.80;19.85;;;11.40;75.00;;;;;;6157774;28;20374;-84
2021/03/07 13:00:17;;;;;;;35.67;24.88;;;11.30;74.40;;;;;;6121509;28;20136;-83
2021/03/07 13:03:18;;;;;;;32.28;21.63;;;11.30;73.20;;;;;;6151643;28;20095;-83
2021/03/07 13:06:19;;;;;;;30.15;22.15;;;11.40;74.70;;;;;;6157223;28;20042;-81
2021/03/07 13:09:19;;;;;;;33.78;21.25;;;11.70;74.40;;;;;;6126203;28;20026;-82
2021/03/07 13:12:20;;;;;;;31.17;20.98;;;11.80;72.70;;;;;;6140305;28;20411;-81
2021/03/07 13:15:21;;;;;;;31.02;20.48;;;11.90;72.70;;;;;;6150757;28;20035;-83
2021/03/07 13:18:21;;;;;;;32.92;20.05;;;12.20;72.80;;;;;;6168294;28;20583;-82
2021/03/07 13:21:23;;;;;;;30.48;20.05;;;12.30;71.10;;;;;;6135387;28;20052;-83
2021/03/07 13:24:24;;;;;;;29.27;19.38;;;12.50;73.10;;;;;;6140419;28;20039;-83
2021/03/07 13:27:24;;;;;;;31.52;20.38;;;13.10;86.80;;;;;;6129274;28;20043;-82
2021/03/07 13:30:25;;;;;;;26.60;19.40;;;13.20;70.50;;;;;;6150698;28;20470;-83
2021/03/07 13:33:26;;;;;;;28.38;19.55;;;;;;;;;;6145076;28;20521;-82
2021/03/07 13:36:27;;;;;;;28.77;19.95;;;13.40;64.50;;;;;;6139953;28;20123;-82
2021/03/07 13:39:28;;;;;;;29.88;20.33;;;13.50;68.20;;;;;;6145233;28;20039;-82
2021/03/07 13:42:28;;;;;;;25.25;18.83;;;13.90;68.20;;;;;;6151449;28;20031;-81
2021/03/07 13:45:29;;;;;;;29.15;19.42;;;13.60;66.70;;;;;;6143561;28;20031;-82
2021/03/07 13:48:30;;;;;;;31.20;19.58;;;;;;;;;;6129863;28;20042;-82
2021/03/07 13:51:31;;;;;;;30.13;19.52;;;13.70;64.00;;;;;;6155330;28;20027;-83
2021/03/07 13:54:31;;;;;;;26.88;19.27;;;13.70;67.30;;;;;;6142310;28;20458;-84
2021/03/07 13:57:32;;;;;;;27.30;19.08;;;;;;;;;;6146453;28;20109;-82
2021/03/07 14:00:33;;;;;;;27.88;20.60;;;13.80;63.80;;;;;;6172870;28;20030;-84
2021/03/07 14:03:34;;;;;;;27.80;18.95;;;13.60;67.30;;;;;;6161529;28;20430;-82
2021/03/07 14:06:35;;;;;;;25.65;18.67;;;;;;;;;;6140528;28;20122;-83
2021/03/07 14:09:35;;;;;;;28.60;18.92;;;13.50;64.10;;;;;;6156531;28;20027;-82
2021/03/07 14:12:36;;;;;;;28.42;19.35;;;13.50;67.90;;;;;;6122492;28;20058;-83
2021/03/07 14:15:37;;;;;;;30.88;20.02;;;13.40;68.70;;;;;;6133942;28;20382;-84
2021/03/07 14:18:37;;;;;;;27.85;19.25;;;13.50;69.00;;;;;;6153207;28;20094;-86
2021/03/07 14:21:38;;;;;;;25.48;17.67;;;13.70;68.40;;;;;;6125380;28;20476;-84
2021/03/07 14:24:39;;;;;;;28.25;17.88;;;14.00;66.00;;;;;;6136627;28;20544;-82
2021/03/07 14:27:39;;;;;;;22.77;16.65;;;14.00;64.90;;;;;;6156278;28;20027;-82
2021/03/07 14:30:40;;;;;;;23.15;17.27;;;14.00;64.70;;;;;;6133824;28;20082;-84
2021/03/07 14:33:41;;;;;;;25.27;16.20;;;14.20;81.20;;;;;;6134139;28;20684;-82
2021/03/07 14:36:41;;;;;;;29.35;16.73;;;14.20;64.40;;;;;;6127946;28;20098;-84
2021/03/07 14:39:42;;;;;;;22.77;16.17;;;13.90;63.90;;;;;;6147448;28;20039;-85
2021/03/07 14:42:43;;;;;;;28.48;18.58;;;13.90;64.00;;;;;;6141166;28;20034;-86
2021/03/07 14:45:43;;;;;;;23.65;17.27;;;13.80;63.90;;;;;;6157176;28;20031;-85
2021/03/07 14:48:44;;;;;;;23.63;16.92;;;13.80;64.20;;;;;;6142142;28;20434;-84
2021/03/07 14:51:45;;;;;;;23.48;16.77;;;13.60;64.50;;;;;;6163091;28;20473;-85
2021/03/07 14:54:46;;;;;;;24.73;17.48;;;13.40;65.50;;;;;;6133234;28;20177;-86
2021/03/07 14:57:46;;;;;;;23.85;15.82;;;13.30;82.80;;;;;;6139792;28;20474;-83
2021/03/07 15:00:47;;;;;;;23.73;16.70;;;13.10;65.80;;;;;;6142568;28;20094;-83
2021/03/07 15:03:48;;;;;;;23.80;15.75;;;13.10;65.90;;;;;;6143393;28;20023;-85
2021/03/07 15:06:48;;;;;;;23.73;17.05;;;13.10;65.80;;;;;;6132118;28;20035;-80
2021/03/07 15:09:49;;;;;;;24.88;16.95;;;12.90;66.70;;;;;;6149473;28;20039;-83
2021/03/07 15:12:50;;;;;;;27.10;15.82;;;12.80;69.20;;;;;;6161385;28;20042;-81
2021/03/07 15:15:50;;;;;;;26.55;15.80;;;12.50;73.40;;;;;;6174143;28;20062;-82
2021/03/07 15:18:51;;;;;;;21.45;15.15;;;12.80;73.80;;;;;;6174198;28;20043;-82
2021/03/07 15:21:52;;;;;;;21.98;14.80;;;12.90;66.60;;;;;;6119578;29;20141;-80
2021/03/07 15:24:53;;;;;;;22.42;16.25;;;13.10;72.30;;;;;;6125007;29;20071;-85
2021/03/07 15:27:53;;;;;;;24.73;15.50;;;12.60;77.00;;;;;;6134301;29;20037;-84
2021/03/07 15:30:54;;;;;;;22.27;16.50;;;12.70;65.20;;;;;;6136434;29;20028;-83
2021/03/07 15:33:55;;;;;;;24.92;16.70;;;12.80;67.20;;;;;;6131643;29;20027;-84
2021/03/07 15:36:55;;;;;;;28.65;17.35;;;12.30;67.80;;;;;;6136679;29;20032;-82
2021/03/07 15:39:56;;;;;;;23.63;17.25;;;12.40;67.00;;;;;;6124589;29;20043;-87
2021/03/07 15:42:57;;;;;;;27.02;16.50;;;12.00;68.20;;;;;;6128861;29;20032;-83
2021/03/07 15:45:57;;;;;;;24.35;16.45;;;11.90;67.80;;;;;;6120122;29;20059;-86
2021/03/07 15:48:58;;;;;;;24.15;17.98;;;12.00;86.10;;;;;;6125289;29;20401;-84